sensor_id;sensor_type;location;lat;lon;timestamp;pressure;altitude;pressure_sealevel;temperature;humidity
66524;BME280;53350;52.210;5.160;2023-09-19T00:02:02;100686.63;;;17.00;73.05
66524;BME280;53350;52.210;5.160;2023-09-19T00:04:30;100699.50;;;17.03;73.16
66524;BME280;53350;52.210;5.160;2023-09-19T00:06:57;100706.50;;;17.01;73.38
66524;BME280;53350;52.210;5.160;2023-09-19T00:09:24;100713.47;;;17.01;73.37
66524;BME280;53350;52.210;5.160;2023-09-19T00:11:52;100715.34;;;16.97;73.41
66524;BME280;53350;52.210;5.160;2023-09-19T00:14:19;100712.03;;;16.94;73.53
66524;BME280;53350;52.210;5.160;2023-09-19T00:16:49;100710.28;;;16.94;73.61
66524;BME280;53350;52.210;5.160;2023-09-19T00:19:17;100718.13;;;16.93;73.77
66524;BME280;53350;52.210;5.160;2023-09-19T00:21:44;100716.47;;;16.92;73.88
66524;BME280;53350;52.210;5.160;2023-09-19T00:24:11;100713.94;;;16.90;73.94
66524;BME280;53350;52.210;5.160;2023-09-19T00:26:38;100723.41;;;16.91;74.35
66524;BME280;53350;52.210;5.160;2023-09-19T00:29:04;100723.47;;;16.90;74.50
66524;BME280;53350;52.210;5.160;2023-09-19T00:31:33;100724.34;;;16.90;74.65
66524;BME280;53350;52.210;5.160;2023-09-19T00:34:03;100726.97;;;16.89;74.67
66524;BME280;53350;52.210;5.160;2023-09-19T00:36:36;100728.75;;;16.88;74.75
66524;BME280;53350;52.210;5.160;2023-09-19T00:39:03;100723.63;;;16.85;74.96
66524;BME280;53350;52.210;5.160;2023-09-19T00:41:31;100721.09;;;16.83;75.16
66524;BME280;53350;52.210;5.160;2023-09-19T00:44:00;100727.19;;;16.82;75.25
66524;BME280;53350;52.210;5.160;2023-09-19T00:46:27;100729.94;;;16.79;75.31
66524;BME280;53350;52.210;5.160;2023-09-19T00:48:53;100735.31;;;16.75;75.43
66524;BME280;53350;52.210;5.160;2023-09-19T00:51:22;100741.41;;;16.74;75.57
66524;BME280;53350;52.210;5.160;2023-09-19T00:53:52;100745.84;;;16.72;75.66
66524;BME280;53350;52.210;5.160;2023-09-19T00:56:19;100746.75;;;16.71;75.78
66524;BME280;53350;52.210;5.160;2023-09-19T00:58:46;100747.66;;;16.69;75.73
66524;BME280;53350;52.210;5.160;2023-09-19T01:01:13;100744.28;;;16.67;75.71
66524;BME280;53350;52.210;5.160;2023-09-19T01:03:40;100739.13;;;16.66;75.75
66524;BME280;53350;52.210;5.160;2023-09-19T01:06:07;100748.63;;;16.67;75.90
66524;BME280;53350;52.210;5.160;2023-09-19T01:08:34;100747.84;;;16.65;75.85
66524;BME280;53350;52.210;5.160;2023-09-19T01:11:08;100745.34;;;16.62;75.86
66524;BME280;53350;52.210;5.160;2023-09-19T01:13:47;100742.56;;;16.66;75.92
66524;BME280;53350;52.210;5.160;2023-09-19T01:16:19;100746.03;;;16.67;75.75
66524;BME280;53350;52.210;5.160;2023-09-19T01:19:04;100758.19;;;16.66;75.63
66524;BME280;53350;52.210;5.160;2023-09-19T01:21:48;100738.25;;;16.65;75.56
66524;BME280;53350;52.210;5.160;2023-09-19T01:27:27;100754.81;;;16.64;75.16
66524;BME280;53350;52.210;5.160;2023-09-19T01:30:09;100742.00;;;16.58;75.21
66524;BME280;53350;52.210;5.160;2023-09-19T01:32:36;100745.34;;;16.62;75.33
66524;BME280;53350;52.210;5.160;2023-09-19T01:35:06;100741.97;;;16.60;75.20
66524;BME280;53350;52.210;5.160;2023-09-19T01:37:38;100740.47;;;16.54;75.20
66524;BME280;53350;52.210;5.160;2023-09-19T01:40:07;100755.00;;;16.58;75.30
66524;BME280;53350;52.210;5.160;2023-09-19T01:42:45;100755.88;;;16.59;75.19
66524;BME280;53350;52.210;5.160;2023-09-19T01:45:17;100757.63;;;16.58;74.88
66524;BME280;53350;52.210;5.160;2023-09-19T01:47:50;100763.81;;;16.56;74.97
66524;BME280;53350;52.210;5.160;2023-09-19T01:50:30;100756.91;;;16.55;74.81
66524;BME280;53350;52.210;5.160;2023-09-19T01:53:04;100756.91;;;16.55;74.73
66524;BME280;53350;52.210;5.160;2023-09-19T01:55:37;100750.88;;;16.54;74.60
66524;BME280;53350;52.210;5.160;2023-09-19T01:58:14;100762.28;;;16.50;74.56
66524;BME280;53350;52.210;5.160;2023-09-19T02:00:44;100759.69;;;16.50;74.41
66524;BME280;53350;52.210;5.160;2023-09-19T02:03:13;100750.19;;;16.49;74.02
66524;BME280;53350;52.210;5.160;2023-09-19T02:05:40;100745.16;;;16.44;74.13
66524;BME280;53350;52.210;5.160;2023-09-19T02:08:06;100744.34;;;16.42;74.07
66524;BME280;53350;52.210;5.160;2023-09-19T02:10:33;100741.75;;;16.42;73.59
66524;BME280;53350;52.210;5.160;2023-09-19T02:12:59;100740.22;;;16.38;73.71
66524;BME280;53350;52.210;5.160;2023-09-19T02:15:26;100754.22;;;16.34;73.36
66524;BME280;53350;52.210;5.160;2023-09-19T02:17:53;100753.34;;;16.33;73.10
66524;BME280;53350;52.210;5.160;2023-09-19T02:20:22;100749.97;;;16.31;73.19
66524;BME280;53350;52.210;5.160;2023-09-19T02:22:48;100755.94;;;16.33;72.83
66524;BME280;53350;52.210;5.160;2023-09-19T02:25:15;100756.94;;;16.31;72.94
66524;BME280;53350;52.210;5.160;2023-09-19T02:27:41;100763.94;;;16.29;73.05
66524;BME280;53350;52.210;5.160;2023-09-19T02:30:08;100762.28;;;16.26;73.17
66524;BME280;53350;52.210;5.160;2023-09-19T02:32:35;100768.47;;;16.24;72.82
66524;BME280;53350;52.210;5.160;2023-09-19T02:35:04;100768.47;;;16.24;72.87
66524;BME280;53350;52.210;5.160;2023-09-19T02:37:30;100766.00;;;16.21;73.23
66524;BME280;53350;52.210;5.160;2023-09-19T02:39:57;100766.88;;;16.20;73.13
66524;BME280;53350;52.210;5.160;2023-09-19T02:42:24;100769.38;;;16.23;73.14
66524;BME280;53350;52.210;5.160;2023-09-19T02:44:50;100773.72;;;16.22;73.33
66524;BME280;53350;52.210;5.160;2023-09-19T02:47:17;100766.78;;;16.23;73.59
66524;BME280;53350;52.210;5.160;2023-09-19T02:49:44;100771.84;;;16.26;73.58
66524;BME280;53350;52.210;5.160;2023-09-19T02:52:12;100776.22;;;16.25;73.53
66524;BME280;53350;52.210;5.160;2023-09-19T02:54:39;100776.97;;;16.27;73.51
66524;BME280;53350;52.210;5.160;2023-09-19T02:57:10;100776.97;;;16.27;73.66
66524;BME280;53350;52.210;5.160;2023-09-19T02:59:36;100760.56;;;16.27;73.62
66524;BME280;53350;52.210;5.160;2023-09-19T03:02:03;100761.38;;;16.27;73.49
66524;BME280;53350;52.210;5.160;2023-09-19T03:04:29;100757.97;;;16.27;73.38
66524;BME280;53350;52.210;5.160;2023-09-19T03:06:56;100758.03;;;16.25;73.25
66524;BME280;53350;52.210;5.160;2023-09-19T03:09:27;100764.22;;;16.21;73.27
66524;BME280;53350;52.210;5.160;2023-09-19T03:11:53;100769.47;;;16.20;73.27
66524;BME280;53350;52.210;5.160;2023-09-19T03:14:20;100767.91;;;16.15;73.42
66524;BME280;53350;52.210;5.160;2023-09-19T03:16:48;100755.81;;;16.14;73.64
66524;BME280;53350;52.210;5.160;2023-09-19T03:19:15;100761.88;;;16.15;73.51
66524;BME280;53350;52.210;5.160;2023-09-19T03:21:42;100771.28;;;16.17;73.52
66524;BME280;53350;52.210;5.160;2023-09-19T03:24:08;100764.34;;;16.18;73.30
66524;BME280;53350;52.210;5.160;2023-09-19T03:26:36;100772.97;;;16.19;73.38
66524;BME280;53350;52.210;5.160;2023-09-19T03:29:03;100764.34;;;16.18;73.04
66524;BME280;53350;52.210;5.160;2023-09-19T03:31:31;100760.88;;;16.17;73.14
66524;BME280;53350;52.210;5.160;2023-09-19T03:33:58;100755.69;;;16.17;73.32
66524;BME280;53350;52.210;5.160;2023-09-19T03:36:24;100750.53;;;16.16;73.49
66524;BME280;53350;52.210;5.160;2023-09-19T03:38:53;100748.06;;;16.13;73.78
66524;BME280;53350;52.210;5.160;2023-09-19T03:41:19;100752.47;;;16.11;73.91
66524;BME280;53350;52.210;5.160;2023-09-19T03:43:47;100753.38;;;16.10;73.81
66524;BME280;53350;52.210;5.160;2023-09-19T03:46:14;100754.28;;;16.09;74.05
66524;BME280;53350;52.210;5.160;2023-09-19T03:48:41;100756.75;;;16.12;74.17
66524;BME280;53350;52.210;5.160;2023-09-19T03:51:07;100758.56;;;16.10;73.98
66524;BME280;53350;52.210;5.160;2023-09-19T03:53:34;100761.41;;;16.04;74.02
66524;BME280;53350;52.210;5.160;2023-09-19T03:56:00;100770.16;;;16.01;73.99
66524;BME280;53350;52.210;5.160;2023-09-19T03:58:28;100775.34;;;16.01;74.23
66524;BME280;53350;52.210;5.160;2023-09-19T04:00:56;100772.75;;;16.01;74.24
66524;BME280;53350;52.210;5.160;2023-09-19T04:03:23;100783.13;;;16.01;73.93
66524;BME280;53350;52.210;5.160;2023-09-19T04:05:59;100785.75;;;16.01;73.76
66524;BME280;53350;52.210;5.160;2023-09-19T04:08:26;100782.41;;;15.97;73.86
66524;BME280;53350;52.210;5.160;2023-09-19T04:10:52;100785.91;;;15.96;74.14
66524;BME280;53350;52.210;5.160;2023-09-19T04:13:18;100789.22;;;16.00;73.87
66524;BME280;53350;52.210;5.160;2023-09-19T04:15:45;100793.81;;;15.93;74.10
66524;BME280;53350;52.210;5.160;2023-09-19T04:18:13;100799.84;;;15.94;74.45
66524;BME280;53350;52.210;5.160;2023-09-19T04:20:39;100810.00;;;16.00;74.21
66524;BME280;53350;52.210;5.160;2023-09-19T04:23:06;100810.94;;;15.99;74.39
66524;BME280;53350;52.210;5.160;2023-09-19T04:25:33;100814.31;;;16.01;74.64
66524;BME280;53350;52.210;5.160;2023-09-19T04:27:59;100811.66;;;16.03;74.54
66524;BME280;53350;52.210;5.160;2023-09-19T04:30:26;100809.13;;;16.01;74.79
66524;BME280;53350;52.210;5.160;2023-09-19T04:32:52;100818.56;;;16.04;74.67
66524;BME280;53350;52.210;5.160;2023-09-19T04:35:20;100810.81;;;16.02;74.76
66524;BME280;53350;52.210;5.160;2023-09-19T04:37:47;100817.88;;;15.98;74.52
66524;BME280;53350;52.210;5.160;2023-09-19T04:40:14;100815.25;;;15.98;74.40
66524;BME280;53350;52.210;5.160;2023-09-19T04:42:42;100815.38;;;15.95;74.51
66524;BME280;53350;52.210;5.160;2023-09-19T04:45:10;100812.91;;;15.92;74.41
66524;BME280;53350;52.210;5.160;2023-09-19T04:47:36;100809.47;;;15.92;74.54
66524;BME280;53350;52.210;5.160;2023-09-19T04:50:06;100805.94;;;15.93;74.26
66524;BME280;53350;52.210;5.160;2023-09-19T04:52:34;100806.06;;;15.90;74.33
66524;BME280;53350;52.210;5.160;2023-09-19T04:55:01;100807.97;;;15.85;74.37
66524;BME280;53350;52.210;5.160;2023-09-19T04:57:27;100810.47;;;15.88;73.80
66524;BME280;53350;52.210;5.160;2023-09-19T04:59:54;100818.50;;;15.80;74.14
66524;BME280;53350;52.210;5.160;2023-09-19T05:02:20;100820.38;;;15.75;74.44
66524;BME280;53350;52.210;5.160;2023-09-19T05:04:47;100815.25;;;15.73;74.55
66524;BME280;53350;52.210;5.160;2023-09-19T05:07:13;100818.63;;;15.75;74.36
66524;BME280;53350;52.210;5.160;2023-09-19T05:09:41;100830.94;;;15.70;74.42
66524;BME280;53350;52.210;5.160;2023-09-19T05:12:07;100824.81;;;15.71;74.44
66524;BME280;53350;52.210;5.160;2023-09-19T05:14:35;100821.50;;;15.68;74.57
66524;BME280;53350;52.210;5.160;2023-09-19T05:17:02;100816.38;;;15.66;74.87
66524;BME280;53350;52.210;5.160;2023-09-19T05:19:29;100819.78;;;15.67;74.74
66524;BME280;53350;52.210;5.160;2023-09-19T05:21:55;100830.19;;;15.67;74.80
66524;BME280;53350;52.210;5.160;2023-09-19T05:24:22;100827.59;;;15.67;74.76
66524;BME280;53350;52.210;5.160;2023-09-19T05:26:52;100824.16;;;15.66;74.91
66524;BME280;53350;52.210;5.160;2023-09-19T05:29:20;100819.00;;;15.64;75.10
66524;BME280;53350;52.210;5.160;2023-09-19T05:31:47;100818.06;;;15.67;74.95
66524;BME280;53350;52.210;5.160;2023-09-19T05:34:14;100821.44;;;15.69;75.07
66524;BME280;53350;52.210;5.160;2023-09-19T05:36:41;100831.94;;;15.66;75.24
66524;BME280;53350;52.210;5.160;2023-09-19T05:39:08;100829.34;;;15.66;75.17
66524;BME280;53350;52.210;5.160;2023-09-19T05:41:35;100841.38;;;15.69;75.11
66524;BME280;53350;52.210;5.160;2023-09-19T05:44:06;100832.63;;;15.71;75.10
66524;BME280;53350;52.210;5.160;2023-09-19T05:46:33;100831.66;;;15.74;75.05
66524;BME280;53350;52.210;5.160;2023-09-19T05:49:00;100836.03;;;15.73;75.26
66524;BME280;53350;52.210;5.160;2023-09-19T05:51:26;100844.66;;;15.74;75.16
66524;BME280;53350;52.210;5.160;2023-09-19T05:53:53;100842.06;;;15.74;75.11
66524;BME280;53350;52.210;5.160;2023-09-19T05:56:20;100846.41;;;15.73;75.17
66524;BME280;53350;52.210;5.160;2023-09-19T05:58:46;100855.00;;;15.75;75.46
66524;BME280;53350;52.210;5.160;2023-09-19T06:01:14;100852.34;;;15.77;75.36
66524;BME280;53350;52.210;5.160;2023-09-19T06:03:40;100854.94;;;15.77;75.33
66524;BME280;53350;52.210;5.160;2023-09-19T06:06:07;100855.91;;;15.74;75.70
66524;BME280;53350;52.210;5.160;2023-09-19T06:08:34;100857.53;;;15.77;75.70
66524;BME280;53350;52.210;5.160;2023-09-19T06:11:00;100863.47;;;15.82;75.47
66524;BME280;53350;52.210;5.160;2023-09-19T06:13:28;100857.50;;;15.78;75.76
66524;BME280;53350;52.210;5.160;2023-09-19T06:15:54;100865.22;;;15.81;75.69
66524;BME280;53350;52.210;5.160;2023-09-19T06:18:22;100866.06;;;15.82;76.14
66524;BME280;53350;52.210;5.160;2023-09-19T06:20:51;100866.75;;;15.87;76.19
66524;BME280;53350;52.210;5.160;2023-09-19T06:23:20;100860.59;;;15.90;75.97
66524;BME280;53350;52.210;5.160;2023-09-19T06:25:48;100859.53;;;15.95;75.82
66524;BME280;53350;52.210;5.160;2023-09-19T06:28:14;100856.00;;;15.98;76.00
66524;BME280;53350;52.210;5.160;2023-09-19T06:30:43;100853.47;;;15.96;76.38
66524;BME280;53350;52.210;5.160;2023-09-19T06:33:10;100848.09;;;16.01;76.29
66524;BME280;53350;52.210;5.160;2023-09-19T06:35:39;100846.13;;;16.08;75.97
66524;BME280;53350;52.210;5.160;2023-09-19T06:38:07;100846.81;;;16.13;75.77
66524;BME280;53350;52.210;5.160;2023-09-19T06:40:34;100849.28;;;16.16;76.08
66524;BME280;53350;52.210;5.160;2023-09-19T06:43:00;100851.78;;;16.19;75.92
66524;BME280;53350;52.210;5.160;2023-09-19T06:45:29;100847.28;;;16.24;75.87
66524;BME280;53350;52.210;5.160;2023-09-19T06:47:57;100849.88;;;16.24;75.86
66524;BME280;53350;52.210;5.160;2023-09-19T06:50:25;100853.38;;;16.23;75.94
66524;BME280;53350;52.210;5.160;2023-09-19T06:52:54;100854.19;;;16.25;76.36
66524;BME280;53350;52.210;5.160;2023-09-19T06:55:22;100855.03;;;16.26;76.23
66524;BME280;53350;52.210;5.160;2023-09-19T06:57:50;100852.19;;;16.32;76.39
66524;BME280;53350;52.210;5.160;2023-09-19T07:00:17;100851.13;;;16.38;76.32
66524;BME280;53350;52.210;5.160;2023-09-19T07:02:55;100852.66;;;16.43;76.30
66524;BME280;53350;52.210;5.160;2023-09-19T07:05:21;100847.22;;;16.49;76.38
66524;BME280;53350;52.210;5.160;2023-09-19T07:07:47;100853.22;;;16.51;76.35
66524;BME280;53350;52.210;5.160;2023-09-19T07:10:16;100846.16;;;16.55;76.28
66524;BME280;53350;52.210;5.160;2023-09-19T07:12:43;100852.22;;;16.56;76.65
66524;BME280;53350;52.210;5.160;2023-09-19T07:15:09;100856.28;;;16.63;76.37
66524;BME280;53350;52.210;5.160;2023-09-19T07:17:36;100860.47;;;16.67;76.21
66524;BME280;53350;52.210;5.160;2023-09-19T07:20:03;100875.84;;;16.73;75.91
66524;BME280;53350;52.210;5.160;2023-09-19T07:22:33;100866.97;;;16.79;75.81
66524;BME280;53350;52.210;5.160;2023-09-19T07:24:59;100871.16;;;16.83;75.99
66524;BME280;53350;52.210;5.160;2023-09-19T07:27:27;100872.66;;;16.89;75.45
66524;BME280;53350;52.210;5.160;2023-09-19T07:29:53;100882.25;;;16.88;75.26
66524;BME280;53350;52.210;5.160;2023-09-19T07:32:20;100875.28;;;16.89;75.49
66524;BME280;53350;52.210;5.160;2023-09-19T07:34:46;100878.38;;;16.98;75.16
66524;BME280;53350;52.210;5.160;2023-09-19T07:37:13;100874.56;;;17.07;74.92
66524;BME280;53350;52.210;5.160;2023-09-19T07:39:41;100882.31;;;17.09;74.96
66524;BME280;53350;52.210;5.160;2023-09-19T07:42:08;100875.75;;;17.22;74.62
66524;BME280;53350;52.210;5.160;2023-09-19T07:44:38;100878.81;;;17.32;74.24
66524;BME280;53350;52.210;5.160;2023-09-19T07:47:04;100883.81;;;17.36;73.90
66524;BME280;53350;52.210;5.160;2023-09-19T07:49:30;100894.97;;;17.40;73.77
66524;BME280;53350;52.210;5.160;2023-09-19T07:51:57;100881.91;;;17.42;73.79
66524;BME280;53350;52.210;5.160;2023-09-19T07:54:24;100893.16;;;17.42;73.46
66524;BME280;53350;52.210;5.160;2023-09-19T07:56:50;100896.50;;;17.46;73.66
66524;BME280;53350;52.210;5.160;2023-09-19T07:59:17;100881.41;;;17.54;73.88
66524;BME280;53350;52.210;5.160;2023-09-19T08:01:44;100879.38;;;17.61;73.59
66524;BME280;53350;52.210;5.160;2023-09-19T08:04:11;100879.78;;;17.72;73.08
66524;BME280;53350;52.210;5.160;2023-09-19T08:06:37;100878.09;;;17.71;73.25
66524;BME280;53350;52.210;5.160;2023-09-19T08:09:04;100882.28;;;17.75;72.56
66524;BME280;53350;52.210;5.160;2023-09-19T08:11:32;100884.50;;;17.84;72.67
66524;BME280;53350;52.210;5.160;2023-09-19T08:13:59;100875.59;;;17.90;72.27
66524;BME280;53350;52.210;5.160;2023-09-19T08:16:25;100880.69;;;17.93;71.97
66524;BME280;53350;52.210;5.160;2023-09-19T08:18:53;100874.56;;;17.94;72.55
66524;BME280;53350;52.210;5.160;2023-09-19T08:21:20;100874.03;;;18.06;72.52
66524;BME280;53350;52.210;5.160;2023-09-19T08:23:46;100880.63;;;18.15;72.02
66524;BME280;53350;52.210;5.160;2023-09-19T08:26:12;100878.78;;;18.17;72.53
66524;BME280;53350;52.210;5.160;2023-09-19T08:28:39;100871.41;;;18.27;72.11
66524;BME280;53350;52.210;5.160;2023-09-19T08:31:07;100873.72;;;18.33;71.31
66524;BME280;53350;52.210;5.160;2023-09-19T08:33:36;100870.22;;;18.34;71.55
66524;BME280;53350;52.210;5.160;2023-09-19T08:36:04;100862.91;;;18.42;71.36
66524;BME280;53350;52.210;5.160;2023-09-19T08:38:31;100858.19;;;18.51;70.98
66524;BME280;53350;52.210;5.160;2023-09-19T08:40:58;100856.16;;;18.57;70.87
66524;BME280;53350;52.210;5.160;2023-09-19T08:43:25;100859.94;;;18.69;70.86
66524;BME280;53350;52.210;5.160;2023-09-19T08:45:58;100860.84;;;18.68;70.45
66524;BME280;53350;52.210;5.160;2023-09-19T08:48:29;100861.38;;;18.76;69.95
66524;BME280;53350;52.210;5.160;2023-09-19T08:51:00;100855.00;;;18.82;69.82
66524;BME280;53350;52.210;5.160;2023-09-19T08:53:36;100862.09;;;18.80;69.56
66524;BME280;53350;52.210;5.160;2023-09-19T08:56:09;100861.81;;;18.86;68.82
66524;BME280;53350;52.210;5.160;2023-09-19T08:58:43;100867.81;;;18.88;68.66
66524;BME280;53350;52.210;5.160;2023-09-19T09:01:13;100877.19;;;18.92;68.54
66524;BME280;53350;52.210;5.160;2023-09-19T09:03:40;100880.38;;;18.99;67.56
66524;BME280;53350;52.210;5.160;2023-09-19T09:06:09;100887.41;;;18.97;67.61
66524;BME280;53350;52.210;5.160;2023-09-19T09:08:39;100871.81;;;18.96;67.89
66524;BME280;53350;52.210;5.160;2023-09-19T09:11:06;100870.06;;;18.96;67.96
66524;BME280;53350;52.210;5.160;2023-09-19T09:13:34;100869.22;;;18.96;67.77
66524;BME280;53350;52.210;5.160;2023-09-19T09:16:01;100866.41;;;19.00;67.60
66524;BME280;53350;52.210;5.160;2023-09-19T09:18:28;100869.69;;;19.04;67.12
66524;BME280;53350;52.210;5.160;2023-09-19T09:20:56;100858.19;;;19.08;66.77
66524;BME280;53350;52.210;5.160;2023-09-19T09:23:22;100845.97;;;19.08;66.38
66524;BME280;53350;52.210;5.160;2023-09-19T09:25:53;100851.13;;;19.10;66.80
66524;BME280;53350;52.210;5.160;2023-09-19T09:28:25;100861.66;;;19.08;66.45
66524;BME280;53350;52.210;5.160;2023-09-19T09:30:53;100849.56;;;19.06;66.63
66524;BME280;53350;52.210;5.160;2023-09-19T09:33:20;100850.44;;;19.06;66.75
66524;BME280;53350;52.210;5.160;2023-09-19T09:35:49;100845.22;;;19.06;66.83
66524;BME280;53350;52.210;5.160;2023-09-19T09:38:17;100854.78;;;19.06;66.57
66524;BME280;53350;52.210;5.160;2023-09-19T09:40:48;100852.25;;;19.04;66.58
66524;BME280;53350;52.210;5.160;2023-09-19T09:43:28;100855.31;;;18.95;66.75
66524;BME280;53350;52.210;5.160;2023-09-19T09:46:09;100853.28;;;19.02;66.97
66524;BME280;53350;52.210;5.160;2023-09-19T09:49:00;100851.28;;;19.07;67.30
66524;BME280;53350;52.210;5.160;2023-09-19T09:51:59;100847.31;;;19.17;67.30
66524;BME280;53350;52.210;5.160;2023-09-19T09:54:31;100856.31;;;19.29;67.05
66524;BME280;53350;52.210;5.160;2023-09-19T09:57:02;100842.19;;;19.33;66.83
66524;BME280;53350;52.210;5.160;2023-09-19T09:59:48;100842.56;;;19.43;66.25
66524;BME280;53350;52.210;5.160;2023-09-19T10:02:16;100850.03;;;19.51;65.63
66524;BME280;53350;52.210;5.160;2023-09-19T10:04:49;100849.34;;;19.47;65.73
66524;BME280;53350;52.210;5.160;2023-09-19T10:07:28;100857.09;;;19.49;65.69
66524;BME280;53350;52.210;5.160;2023-09-19T10:09:59;100850.34;;;19.44;65.75
66524;BME280;53350;52.210;5.160;2023-09-19T10:12:37;100844.28;;;19.44;65.53
66524;BME280;53350;52.210;5.160;2023-09-19T10:15:07;100837.28;;;19.44;65.26
66524;BME280;53350;52.210;5.160;2023-09-19T10:17:36;100823.16;;;19.49;65.32
66524;BME280;53350;52.210;5.160;2023-09-19T10:20:03;100822.75;;;19.39;65.39
66524;BME280;53350;52.210;5.160;2023-09-19T10:22:43;100835.88;;;19.55;65.30
66524;BME280;53350;52.210;5.160;2023-09-19T10:25:11;100826.16;;;19.58;64.99
66524;BME280;53350;52.210;5.160;2023-09-19T10:27:39;100816.28;;;19.63;64.51
66524;BME280;53350;52.210;5.160;2023-09-19T10:30:10;100813.16;;;19.74;64.56
66524;BME280;53350;52.210;5.160;2023-09-19T10:32:39;100809.09;;;19.86;64.03
66524;BME280;53350;52.210;5.160;2023-09-19T10:35:07;100803.81;;;20.04;64.01
66524;BME280;53350;52.210;5.160;2023-09-19T10:37:34;100804.22;;;19.96;64.34
66524;BME280;53350;52.210;5.160;2023-09-19T10:40:04;100792.44;;;20.05;63.41
66524;BME280;53350;52.210;5.160;2023-09-19T10:42:35;100797.50;;;20.08;63.84
66524;BME280;53350;52.210;5.160;2023-09-19T10:45:05;100797.69;;;20.21;63.84
66524;BME280;53350;52.210;5.160;2023-09-19T10:47:39;100776.59;;;20.24;62.70
66524;BME280;53350;52.210;5.160;2023-09-19T10:50:06;100782.41;;;20.29;63.09
66524;BME280;53350;52.210;5.160;2023-09-19T10:52:40;100792.81;;;20.46;62.87
66524;BME280;53350;52.210;5.160;2023-09-19T10:55:08;100785.38;;;20.55;62.18
66524;BME280;53350;52.210;5.160;2023-09-19T10:57:36;100783.88;;;20.66;61.96
66524;BME280;53350;52.210;5.160;2023-09-19T11:00:04;100764.97;;;20.61;61.42
66524;BME280;53350;52.210;5.160;2023-09-19T11:03:18;100766.72;;;20.61;61.63
66524;BME280;53350;52.210;5.160;2023-09-19T11:06:01;100792.41;;;20.54;61.26
66524;BME280;53350;52.210;5.160;2023-09-19T11:08:30;100778.41;;;20.55;61.22
66524;BME280;53350;52.210;5.160;2023-09-19T11:10:58;100756.53;;;20.56;60.78
66524;BME280;53350;52.210;5.160;2023-09-19T11:13:25;100780.16;;;20.55;61.30
66524;BME280;53350;52.210;5.160;2023-09-19T11:16:17;100776.00;;;20.50;62.35
66524;BME280;53350;52.210;5.160;2023-09-19T11:18:56;100778.63;;;20.50;62.36
66524;BME280;53350;52.210;5.160;2023-09-19T11:21:42;100776.78;;;20.53;62.46
66524;BME280;53350;52.210;5.160;2023-09-19T11:24:34;100777.72;;;20.52;62.10
66524;BME280;53350;52.210;5.160;2023-09-19T11:27:10;100766.59;;;20.48;62.12
66524;BME280;53350;52.210;5.160;2023-09-19T11:29:38;100758.72;;;20.48;62.01
66524;BME280;53350;52.210;5.160;2023-09-19T11:32:06;100757.03;;;20.63;61.85
66524;BME280;53350;52.210;5.160;2023-09-19T11:34:44;100757.03;;;20.63;61.09
66524;BME280;53350;52.210;5.160;2023-09-19T11:40:28;100749.19;;;20.63;61.70
66524;BME280;53350;52.210;5.160;2023-09-19T11:42:55;100743.44;;;20.72;61.48
66524;BME280;53350;52.210;5.160;2023-09-19T11:48:27;100737.53;;;20.84;60.40
66524;BME280;53350;52.210;5.160;2023-09-19T11:50:56;100745.38;;;20.84;60.55
66524;BME280;53350;52.210;5.160;2023-09-19T11:53:30;100745.28;;;20.86;60.27
66524;BME280;53350;52.210;5.160;2023-09-19T11:55:58;100754.66;;;20.90;60.65
66524;BME280;53350;52.210;5.160;2023-09-19T11:58:26;100759.31;;;20.85;59.98
66524;BME280;53350;52.210;5.160;2023-09-19T12:00:55;100761.09;;;20.84;60.58
66524;BME280;53350;52.210;5.160;2023-09-19T12:03:29;100751.44;;;20.85;60.00
66524;BME280;53350;52.210;5.160;2023-09-19T12:05:57;100758.16;;;20.75;59.83
66524;BME280;53350;52.210;5.160;2023-09-19T12:08:24;100766.25;;;20.70;60.51
66524;BME280;53350;52.210;5.160;2023-09-19T12:10:53;100757.28;;;20.58;60.58
66524;BME280;53350;52.210;5.160;2023-09-19T12:13:20;100758.88;;;20.61;60.71
66524;BME280;53350;52.210;5.160;2023-09-19T12:15:47;100766.31;;;20.53;60.94
66524;BME280;53350;52.210;5.160;2023-09-19T12:18:26;100765.47;;;20.52;61.26
66524;BME280;53350;52.210;5.160;2023-09-19T12:20:53;100759.41;;;20.52;61.39
66524;BME280;53350;52.210;5.160;2023-09-19T12:23:21;100761.41;;;20.46;61.12
66524;BME280;53350;52.210;5.160;2023-09-19T12:25:48;100743.97;;;20.47;60.69
66524;BME280;53350;52.210;5.160;2023-09-19T12:28:19;100761.75;;;20.40;61.51
66524;BME280;53350;52.210;5.160;2023-09-19T12:30:46;100756.88;;;20.34;61.83
66524;BME280;53350;52.210;5.160;2023-09-19T12:33:16;100758.97;;;20.27;62.00
66524;BME280;53350;52.210;5.160;2023-09-19T12:35:45;100750.81;;;20.33;62.54
66524;BME280;53350;52.210;5.160;2023-09-19T12:38:23;100757.88;;;20.31;62.62
66524;BME280;53350;52.210;5.160;2023-09-19T12:40:50;100766.63;;;20.30;62.66
66524;BME280;53350;52.210;5.160;2023-09-19T12:43:17;100764.47;;;20.39;62.10
66524;BME280;53350;52.210;5.160;2023-09-19T12:45:44;100751.13;;;20.43;63.01
66524;BME280;53350;52.210;5.160;2023-09-19T12:48:21;100751.28;;;20.56;62.77
66524;BME280;53350;52.210;5.160;2023-09-19T12:51:03;100751.97;;;20.60;62.73
66524;BME280;53350;52.210;5.160;2023-09-19T12:53:35;100746.34;;;20.67;62.41
66524;BME280;53350;52.210;5.160;2023-09-19T12:56:06;100731.34;;;20.54;63.00
66524;BME280;53350;52.210;5.160;2023-09-19T12:58:34;100740.72;;;20.58;62.69
66524;BME280;53350;52.210;5.160;2023-09-19T13:01:14;100741.50;;;20.60;62.36
66524;BME280;53350;52.210;5.160;2023-09-19T13:03:41;100737.38;;;20.56;62.42
66524;BME280;53350;52.210;5.160;2023-09-19T13:06:07;100748.66;;;20.56;62.96
66524;BME280;53350;52.210;5.160;2023-09-19T13:08:37;100746.22;;;20.53;62.78
66524;BME280;53350;52.210;5.160;2023-09-19T13:11:06;100747.91;;;20.54;63.06